sensor_id;sensor_type;location;lat;lon;timestamp;P1;durP1;ratioP1;P2;durP2;ratioP2
66487;SDS011;53304;54.550;18.526;2023-06-14T00:02:20;4.43;;;2.10;;
66487;SDS011;53304;54.550;18.526;2023-06-14T00:04:50;5.13;;;2.00;;
66487;SDS011;53304;54.550;18.526;2023-06-14T00:07:21;3.83;;;2.00;;
66487;SDS011;53304;54.550;18.526;2023-06-14T00:09:59;5.57;;;2.30;;
66487;SDS011;53304;54.550;18.526;2023-06-14T00:12:26;4.18;;;2.08;;
66487;SDS011;53304;54.550;18.526;2023-06-14T00:14:52;5.70;;;1.88;;
66487;SDS011;53304;54.550;18.526;2023-06-14T00:17:22;6.80;;;2.40;;
66487;SDS011;53304;54.550;18.526;2023-06-14T00:20:01;5.10;;;2.05;;
66487;SDS011;53304;54.550;18.526;2023-06-14T00:22:29;3.85;;;2.00;;
66487;SDS011;53304;54.550;18.526;2023-06-14T00:24:55;4.57;;;1.95;;
66487;SDS011;53304;54.550;18.526;2023-06-14T00:27:28;4.95;;;2.17;;
66487;SDS011;53304;54.550;18.526;2023-06-14T00:29:58;3.28;;;1.75;;
66487;SDS011;53304;54.550;18.526;2023-06-14T00:32:26;6.90;;;2.45;;
66487;SDS011;53304;54.550;18.526;2023-06-14T00:34:55;4.35;;;1.90;;
66487;SDS011;53304;54.550;18.526;2023-06-14T00:37:25;3.22;;;2.00;;
66487;SDS011;53304;54.550;18.526;2023-06-14T00:39:50;5.53;;;1.90;;
66487;SDS011;53304;54.550;18.526;2023-06-14T00:42:24;5.05;;;2.20;;
66487;SDS011;53304;54.550;18.526;2023-06-14T00:44:51;4.90;;;2.08;;
66487;SDS011;53304;54.550;18.526;2023-06-14T00:47:18;6.25;;;2.00;;
66487;SDS011;53304;54.550;18.526;2023-06-14T00:49:47;6.15;;;2.05;;
66487;SDS011;53304;54.550;18.526;2023-06-14T00:52:16;5.95;;;2.10;;
66487;SDS011;53304;54.550;18.526;2023-06-14T00:54:43;5.18;;;1.90;;
66487;SDS011;53304;54.550;18.526;2023-06-14T00:57:11;5.35;;;2.15;;
66487;SDS011;53304;54.550;18.526;2023-06-14T00:59:44;5.13;;;1.92;;
66487;SDS011;53304;54.550;18.526;2023-06-14T01:02:11;4.60;;;2.22;;
66487;SDS011;53304;54.550;18.526;2023-06-14T01:04:37;6.25;;;2.20;;
66487;SDS011;53304;54.550;18.526;2023-06-14T01:15:26;3.78;;;2.00;;
66487;SDS011;53304;54.550;18.526;2023-06-14T01:17:52;3.42;;;1.88;;
66487;SDS011;53304;54.550;18.526;2023-06-14T01:20:21;4.28;;;1.80;;
66487;SDS011;53304;54.550;18.526;2023-06-14T01:22:51;5.70;;;2.15;;
66487;SDS011;53304;54.550;18.526;2023-06-14T01:25:18;4.15;;;2.10;;
66487;SDS011;53304;54.550;18.526;2023-06-14T01:27:47;4.00;;;1.92;;
66487;SDS011;53304;54.550;18.526;2023-06-14T01:30:15;5.80;;;2.05;;
66487;SDS011;53304;54.550;18.526;2023-06-14T01:32:41;3.38;;;1.92;;
66487;SDS011;53304;54.550;18.526;2023-06-14T01:35:06;3.17;;;1.80;;
66487;SDS011;53304;54.550;18.526;2023-06-14T01:37:32;5.03;;;2.10;;
66487;SDS011;53304;54.550;18.526;2023-06-14T01:40:01;3.90;;;1.90;;
66487;SDS011;53304;54.550;18.526;2023-06-14T01:42:28;3.45;;;1.80;;
66487;SDS011;53304;54.550;18.526;2023-06-14T01:44:54;4.97;;;2.15;;
66487;SDS011;53304;54.550;18.526;2023-06-14T01:47:22;4.32;;;1.77;;
66487;SDS011;53304;54.550;18.526;2023-06-14T01:49:48;4.57;;;1.83;;
66487;SDS011;53304;54.550;18.526;2023-06-14T01:52:15;4.03;;;1.90;;
66487;SDS011;53304;54.550;18.526;2023-06-14T01:54:43;5.35;;;1.90;;
66487;SDS011;53304;54.550;18.526;2023-06-14T01:57:09;4.20;;;2.03;;
66487;SDS011;53304;54.550;18.526;2023-06-14T01:59:35;3.40;;;1.70;;
66487;SDS011;53304;54.550;18.526;2023-06-14T02:02:03;4.55;;;1.95;;
66487;SDS011;53304;54.550;18.526;2023-06-14T02:04:31;6.03;;;1.92;;
66487;SDS011;53304;54.550;18.526;2023-06-14T02:06:56;5.93;;;2.22;;
66487;SDS011;53304;54.550;18.526;2023-06-14T02:09:22;3.35;;;1.80;;
66487;SDS011;53304;54.550;18.526;2023-06-14T02:11:51;4.53;;;2.08;;
66487;SDS011;53304;54.550;18.526;2023-06-14T02:14:16;4.07;;;1.90;;
66487;SDS011;53304;54.550;18.526;2023-06-14T02:16:47;5.63;;;2.30;;
66487;SDS011;53304;54.550;18.526;2023-06-14T02:19:17;5.03;;;1.92;;
66487;SDS011;53304;54.550;18.526;2023-06-14T02:21:48;4.87;;;1.90;;
66487;SDS011;53304;54.550;18.526;2023-06-14T02:24:15;4.28;;;1.95;;
66487;SDS011;53304;54.550;18.526;2023-06-14T02:26:41;7.05;;;2.13;;
66487;SDS011;53304;54.550;18.526;2023-06-14T02:29:11;3.80;;;1.90;;
66487;SDS011;53304;54.550;18.526;2023-06-14T02:31:39;5.85;;;2.13;;
66487;SDS011;53304;54.550;18.526;2023-06-14T02:34:07;4.97;;;2.03;;
66487;SDS011;53304;54.550;18.526;2023-06-14T02:36:36;4.30;;;2.00;;
66487;SDS011;53304;54.550;18.526;2023-06-14T02:39:06;4.10;;;2.08;;
66487;SDS011;53304;54.550;18.526;2023-06-14T02:41:34;3.92;;;1.95;;
66487;SDS011;53304;54.550;18.526;2023-06-14T02:44:02;3.13;;;1.70;;
66487;SDS011;53304;54.550;18.526;2023-06-14T02:46:30;4.10;;;2.03;;
66487;SDS011;53304;54.550;18.526;2023-06-14T02:48:55;4.60;;;2.20;;
66487;SDS011;53304;54.550;18.526;2023-06-14T02:51:23;5.35;;;2.00;;
66487;SDS011;53304;54.550;18.526;2023-06-14T02:53:50;5.95;;;2.10;;
66487;SDS011;53304;54.550;18.526;2023-06-14T02:56:16;6.25;;;2.00;;
66487;SDS011;53304;54.550;18.526;2023-06-14T02:58:42;3.83;;;1.98;;
66487;SDS011;53304;54.550;18.526;2023-06-14T03:01:08;3.25;;;1.95;;
66487;SDS011;53304;54.550;18.526;2023-06-14T03:03:37;4.38;;;2.08;;
66487;SDS011;53304;54.550;18.526;2023-06-14T03:06:05;2.80;;;1.80;;
66487;SDS011;53304;54.550;18.526;2023-06-14T03:08:34;4.15;;;2.20;;
66487;SDS011;53304;54.550;18.526;2023-06-14T03:11:03;5.07;;;2.08;;
66487;SDS011;53304;54.550;18.526;2023-06-14T03:13:33;3.58;;;2.00;;
66487;SDS011;53304;54.550;18.526;2023-06-14T03:15:59;3.83;;;2.05;;
66487;SDS011;53304;54.550;18.526;2023-06-14T03:18:32;4.15;;;2.08;;
66487;SDS011;53304;54.550;18.526;2023-06-14T03:21:01;4.78;;;2.00;;
66487;SDS011;53304;54.550;18.526;2023-06-14T03:23:31;4.72;;;1.90;;
66487;SDS011;53304;54.550;18.526;2023-06-14T03:25:56;4.18;;;2.03;;
66487;SDS011;53304;54.550;18.526;2023-06-14T03:28:28;4.70;;;2.20;;
66487;SDS011;53304;54.550;18.526;2023-06-14T03:30:53;5.50;;;2.10;;
66487;SDS011;53304;54.550;18.526;2023-06-14T03:33:21;3.72;;;2.08;;
66487;SDS011;53304;54.550;18.526;2023-06-14T03:35:46;4.88;;;2.10;;
66487;SDS011;53304;54.550;18.526;2023-06-14T03:38:14;3.47;;;1.95;;
66487;SDS011;53304;54.550;18.526;2023-06-14T03:40:40;4.10;;;1.80;;
66487;SDS011;53304;54.550;18.526;2023-06-14T03:43:05;4.18;;;2.13;;
66487;SDS011;53304;54.550;18.526;2023-06-14T03:45:31;4.60;;;2.03;;
66487;SDS011;53304;54.550;18.526;2023-06-14T03:47:58;3.53;;;1.98;;
66487;SDS011;53304;54.550;18.526;2023-06-14T03:50:25;3.63;;;1.95;;
66487;SDS011;53304;54.550;18.526;2023-06-14T03:52:52;3.90;;;1.88;;
66487;SDS011;53304;54.550;18.526;2023-06-14T03:55:17;6.55;;;2.10;;
66487;SDS011;53304;54.550;18.526;2023-06-14T03:57:42;4.88;;;2.20;;
66487;SDS011;53304;54.550;18.526;2023-06-14T04:00:10;4.47;;;2.10;;
66487;SDS011;53304;54.550;18.526;2023-06-14T04:02:37;5.15;;;1.73;;
66487;SDS011;53304;54.550;18.526;2023-06-14T04:05:03;4.05;;;1.90;;
66487;SDS011;53304;54.550;18.526;2023-06-14T04:07:31;2.58;;;1.80;;
66487;SDS011;53304;54.550;18.526;2023-06-14T04:09:56;3.95;;;1.90;;
66487;SDS011;53304;54.550;18.526;2023-06-14T04:12:24;3.58;;;1.77;;
66487;SDS011;53304;54.550;18.526;2023-06-14T04:14:49;3.63;;;1.92;;
66487;SDS011;53304;54.550;18.526;2023-06-14T04:17:17;3.47;;;1.75;;
66487;SDS011;53304;54.550;18.526;2023-06-14T04:19:50;4.03;;;1.73;;
66487;SDS011;53304;54.550;18.526;2023-06-14T04:22:17;3.78;;;1.70;;
66487;SDS011;53304;54.550;18.526;2023-06-14T04:24:47;3.45;;;1.80;;
66487;SDS011;53304;54.550;18.526;2023-06-14T04:29:49;6.63;;;1.98;;
66487;SDS011;53304;54.550;18.526;2023-06-14T04:32:18;4.68;;;1.88;;
66487;SDS011;53304;54.550;18.526;2023-06-14T04:34:43;3.97;;;1.80;;
66487;SDS011;53304;54.550;18.526;2023-06-14T04:37:09;4.03;;;1.70;;
66487;SDS011;53304;54.550;18.526;2023-06-14T04:39:39;3.88;;;1.88;;
66487;SDS011;53304;54.550;18.526;2023-06-14T04:42:04;4.38;;;1.98;;
66487;SDS011;53304;54.550;18.526;2023-06-14T04:44:32;8.48;;;1.88;;
66487;SDS011;53304;54.550;18.526;2023-06-14T04:47:00;4.82;;;2.00;;
66487;SDS011;53304;54.550;18.526;2023-06-14T04:49:26;4.20;;;1.90;;
66487;SDS011;53304;54.550;18.526;2023-06-14T04:51:56;6.00;;;1.90;;
66487;SDS011;53304;54.550;18.526;2023-06-14T04:54:26;5.55;;;2.10;;
66487;SDS011;53304;54.550;18.526;2023-06-14T04:56:56;4.15;;;2.17;;
66487;SDS011;53304;54.550;18.526;2023-06-14T04:59:27;5.90;;;1.92;;
66487;SDS011;53304;54.550;18.526;2023-06-14T05:01:53;4.63;;;1.60;;
66487;SDS011;53304;54.550;18.526;2023-06-14T05:04:21;5.07;;;2.05;;
66487;SDS011;53304;54.550;18.526;2023-06-14T05:06:53;5.20;;;1.80;;
66487;SDS011;53304;54.550;18.526;2023-06-14T05:09:19;5.13;;;2.25;;
66487;SDS011;53304;54.550;18.526;2023-06-14T05:11:47;4.07;;;2.20;;
66487;SDS011;53304;54.550;18.526;2023-06-14T05:14:13;5.30;;;2.08;;
66487;SDS011;53304;54.550;18.526;2023-06-14T05:16:39;4.35;;;1.85;;
66487;SDS011;53304;54.550;18.526;2023-06-14T05:19:07;3.92;;;1.83;;
66487;SDS011;53304;54.550;18.526;2023-06-14T05:21:36;5.28;;;1.98;;
66487;SDS011;53304;54.550;18.526;2023-06-14T05:24:04;9.80;;;1.98;;
66487;SDS011;53304;54.550;18.526;2023-06-14T05:26:29;4.60;;;2.00;;
66487;SDS011;53304;54.550;18.526;2023-06-14T05:28:58;11.30;;;2.17;;
66487;SDS011;53304;54.550;18.526;2023-06-14T05:31:27;4.55;;;2.13;;
66487;SDS011;53304;54.550;18.526;2023-06-14T05:33:53;5.60;;;2.15;;
66487;SDS011;53304;54.550;18.526;2023-06-14T05:36:21;5.00;;;1.88;;
66487;SDS011;53304;54.550;18.526;2023-06-14T05:38:47;4.25;;;1.80;;
66487;SDS011;53304;54.550;18.526;2023-06-14T05:41:12;5.35;;;1.98;;
66487;SDS011;53304;54.550;18.526;2023-06-14T05:43:37;4.50;;;1.92;;
66487;SDS011;53304;54.550;18.526;2023-06-14T05:46:07;6.30;;;2.03;;
66487;SDS011;53304;54.550;18.526;2023-06-14T05:48:33;6.82;;;2.00;;
66487;SDS011;53304;54.550;18.526;2023-06-14T05:51:01;5.75;;;2.20;;
66487;SDS011;53304;54.550;18.526;2023-06-14T05:53:29;11.25;;;2.78;;
66487;SDS011;53304;54.550;18.526;2023-06-14T05:55:54;8.60;;;2.35;;
66487;SDS011;53304;54.550;18.526;2023-06-14T05:58:19;9.07;;;2.55;;
66487;SDS011;53304;54.550;18.526;2023-06-14T06:00:45;6.80;;;2.50;;
66487;SDS011;53304;54.550;18.526;2023-06-14T06:03:11;6.40;;;2.13;;
66487;SDS011;53304;54.550;18.526;2023-06-14T06:05:39;8.23;;;2.55;;
66487;SDS011;53304;54.550;18.526;2023-06-14T06:08:07;8.77;;;2.83;;
66487;SDS011;53304;54.550;18.526;2023-06-14T06:10:32;11.82;;;3.40;;
66487;SDS011;53304;54.550;18.526;2023-06-14T06:12:57;14.15;;;3.85;;
66487;SDS011;53304;54.550;18.526;2023-06-14T06:15:23;10.55;;;3.13;;
66487;SDS011;53304;54.550;18.526;2023-06-14T06:17:51;8.40;;;3.05;;
66487;SDS011;53304;54.550;18.526;2023-06-14T06:20:18;8.48;;;3.03;;
66487;SDS011;53304;54.550;18.526;2023-06-14T06:22:46;6.90;;;2.88;;
66487;SDS011;53304;54.550;18.526;2023-06-14T06:25:14;10.65;;;2.80;;
66487;SDS011;53304;54.550;18.526;2023-06-14T06:27:40;5.28;;;2.97;;
66487;SDS011;53304;54.550;18.526;2023-06-14T06:30:05;9.13;;;3.60;;
66487;SDS011;53304;54.550;18.526;2023-06-14T06:32:31;8.80;;;2.92;;
66487;SDS011;53304;54.550;18.526;2023-06-14T06:34:59;10.48;;;3.40;;
66487;SDS011;53304;54.550;18.526;2023-06-14T06:37:30;5.82;;;2.72;;
66487;SDS011;53304;54.550;18.526;2023-06-14T06:39:55;7.25;;;2.88;;
66487;SDS011;53304;54.550;18.526;2023-06-14T06:42:23;14.45;;;3.42;;
66487;SDS011;53304;54.550;18.526;2023-06-14T06:44:50;9.57;;;3.08;;
66487;SDS011;53304;54.550;18.526;2023-06-14T06:47:18;9.77;;;3.50;;
66487;SDS011;53304;54.550;18.526;2023-06-14T06:49:46;8.60;;;3.55;;
66487;SDS011;53304;54.550;18.526;2023-06-14T06:52:14;11.10;;;2.97;;
66487;SDS011;53304;54.550;18.526;2023-06-14T06:54:39;9.93;;;3.20;;
66487;SDS011;53304;54.550;18.526;2023-06-14T06:57:09;8.25;;;3.28;;
66487;SDS011;53304;54.550;18.526;2023-06-14T06:59:40;7.82;;;2.97;;
66487;SDS011;53304;54.550;18.526;2023-06-14T07:02:08;8.50;;;3.10;;
66487;SDS011;53304;54.550;18.526;2023-06-14T07:04:36;7.97;;;3.03;;
66487;SDS011;53304;54.550;18.526;2023-06-14T07:07:02;6.28;;;2.92;;
66487;SDS011;53304;54.550;18.526;2023-06-14T07:09:30;12.02;;;3.75;;
66487;SDS011;53304;54.550;18.526;2023-06-14T07:11:55;12.47;;;3.40;;
66487;SDS011;53304;54.550;18.526;2023-06-14T07:14:22;8.90;;;3.47;;
66487;SDS011;53304;54.550;18.526;2023-06-14T07:16:49;7.40;;;3.20;;
66487;SDS011;53304;54.550;18.526;2023-06-14T07:19:19;8.82;;;3.20;;
66487;SDS011;53304;54.550;18.526;2023-06-14T07:21:45;11.98;;;3.92;;
66487;SDS011;53304;54.550;18.526;2023-06-14T07:24:10;9.93;;;3.70;;
66487;SDS011;53304;54.550;18.526;2023-06-14T07:26:35;13.32;;;3.92;;
66487;SDS011;53304;54.550;18.526;2023-06-14T07:29:01;11.75;;;3.53;;
66487;SDS011;53304;54.550;18.526;2023-06-14T07:31:27;11.48;;;3.58;;
66487;SDS011;53304;54.550;18.526;2023-06-14T07:33:55;7.30;;;3.33;;
66487;SDS011;53304;54.550;18.526;2023-06-14T07:36:23;8.07;;;3.53;;
66487;SDS011;53304;54.550;18.526;2023-06-14T07:38:50;8.43;;;3.33;;
66487;SDS011;53304;54.550;18.526;2023-06-14T07:41:19;7.55;;;3.10;;
66487;SDS011;53304;54.550;18.526;2023-06-14T07:43:47;9.80;;;3.20;;
66487;SDS011;53304;54.550;18.526;2023-06-14T07:46:12;7.22;;;3.33;;
66487;SDS011;53304;54.550;18.526;2023-06-14T07:48:40;6.43;;;2.70;;
66487;SDS011;53304;54.550;18.526;2023-06-14T07:51:05;8.68;;;2.90;;
66487;SDS011;53304;54.550;18.526;2023-06-14T07:53:31;11.70;;;3.45;;
66487;SDS011;53304;54.550;18.526;2023-06-14T07:55:58;5.53;;;2.47;;
66487;SDS011;53304;54.550;18.526;2023-06-14T07:58:25;4.82;;;2.45;;
66487;SDS011;53304;54.550;18.526;2023-06-14T08:00:55;5.72;;;2.58;;
66487;SDS011;53304;54.550;18.526;2023-06-14T08:03:20;6.25;;;3.08;;
66487;SDS011;53304;54.550;18.526;2023-06-14T08:05:47;6.28;;;2.90;;
66487;SDS011;53304;54.550;18.526;2023-06-14T08:08:13;6.72;;;2.80;;
66487;SDS011;53304;54.550;18.526;2023-06-14T08:10:38;9.77;;;3.20;;
66487;SDS011;53304;54.550;18.526;2023-06-14T08:13:03;8.05;;;2.90;;
66487;SDS011;53304;54.550;18.526;2023-06-14T08:15:29;5.70;;;2.83;;
66487;SDS011;53304;54.550;18.526;2023-06-14T08:17:57;6.85;;;2.92;;
66487;SDS011;53304;54.550;18.526;2023-06-14T08:20:24;9.73;;;3.17;;
66487;SDS011;53304;54.550;18.526;2023-06-14T08:22:52;12.98;;;3.47;;
66487;SDS011;53304;54.550;18.526;2023-06-14T08:25:24;13.18;;;4.22;;
66487;SDS011;53304;54.550;18.526;2023-06-14T08:27:49;7.20;;;2.75;;
66487;SDS011;53304;54.550;18.526;2023-06-14T08:30:15;12.73;;;3.38;;
66487;SDS011;53304;54.550;18.526;2023-06-14T08:32:43;13.55;;;3.33;;
66487;SDS011;53304;54.550;18.526;2023-06-14T08:35:09;13.25;;;4.15;;
66487;SDS011;53304;54.550;18.526;2023-06-14T08:37:38;18.60;;;3.90;;
66487;SDS011;53304;54.550;18.526;2023-06-14T08:40:17;18.60;;;4.45;;
66487;SDS011;53304;54.550;18.526;2023-06-14T08:42:44;8.35;;;2.97;;
66487;SDS011;53304;54.550;18.526;2023-06-14T08:45:10;8.60;;;3.35;;
66487;SDS011;53304;54.550;18.526;2023-06-14T08:47:36;10.55;;;3.60;;
66487;SDS011;53304;54.550;18.526;2023-06-14T08:50:03;11.90;;;3.20;;
66487;SDS011;53304;54.550;18.526;2023-06-14T08:52:32;6.68;;;2.78;;
66487;SDS011;53304;54.550;18.526;2023-06-14T08:55:05;8.43;;;3.65;;
66487;SDS011;53304;54.550;18.526;2023-06-14T08:57:36;5.53;;;3.10;;
66487;SDS011;53304;54.550;18.526;2023-06-14T09:00:05;9.07;;;2.90;;
66487;SDS011;53304;54.550;18.526;2023-06-14T09:02:37;6.22;;;2.95;;
66487;SDS011;53304;54.550;18.526;2023-06-14T09:05:09;6.00;;;2.70;;
66487;SDS011;53304;54.550;18.526;2023-06-14T09:07:39;7.20;;;2.83;;
66487;SDS011;53304;54.550;18.526;2023-06-14T09:10:07;8.55;;;3.17;;
66487;SDS011;53304;54.550;18.526;2023-06-14T09:12:35;5.28;;;2.70;;
66487;SDS011;53304;54.550;18.526;2023-06-14T09:15:00;9.73;;;3.05;;
66487;SDS011;53304;54.550;18.526;2023-06-14T09:17:33;11.32;;;3.10;;
66487;SDS011;53304;54.550;18.526;2023-06-14T09:20:09;7.78;;;2.90;;
66487;SDS011;53304;54.550;18.526;2023-06-14T09:22:36;8.27;;;3.40;;
66487;SDS011;53304;54.550;18.526;2023-06-14T09:25:04;7.50;;;2.95;;
66487;SDS011;53304;54.550;18.526;2023-06-14T09:27:31;9.98;;;3.13;;
66487;SDS011;53304;54.550;18.526;2023-06-14T09:29:57;10.02;;;2.97;;
66487;SDS011;53304;54.550;18.526;2023-06-14T09:32:25;8.15;;;2.60;;
66487;SDS011;53304;54.550;18.526;2023-06-14T09:34:50;7.60;;;2.70;;
66487;SDS011;53304;54.550;18.526;2023-06-14T09:39:54;6.53;;;2.60;;
66487;SDS011;53304;54.550;18.526;2023-06-14T09:42:20;6.55;;;2.70;;
66487;SDS011;53304;54.550;18.526;2023-06-14T09:44:48;7.60;;;2.65;;
66487;SDS011;53304;54.550;18.526;2023-06-14T09:47:15;9.55;;;3.20;;
66487;SDS011;53304;54.550;18.526;2023-06-14T09:49:41;7.97;;;2.85;;
66487;SDS011;53304;54.550;18.526;2023-06-14T09:52:16;9.95;;;3.00;;
66487;SDS011;53304;54.550;18.526;2023-06-14T09:54:43;7.32;;;3.03;;
66487;SDS011;53304;54.550;18.526;2023-06-14T09:57:11;6.28;;;2.85;;
66487;SDS011;53304;54.550;18.526;2023-06-14T09:59:44;6.93;;;3.05;;
66487;SDS011;53304;54.550;18.526;2023-06-14T10:04:58;8.30;;;3.00;;
66487;SDS011;53304;54.550;18.526;2023-06-14T10:07:42;5.75;;;3.10;;
66487;SDS011;53304;54.550;18.526;2023-06-14T10:10:14;5.95;;;2.90;;
66487;SDS011;53304;54.550;18.526;2023-06-14T10:12:42;5.50;;;2.83;;
66487;SDS011;53304;54.550;18.526;2023-06-14T10:15:12;7.20;;;3.22;;
66487;SDS011;53304;54.550;18.526;2023-06-14T10:17:50;8.65;;;3.15;;
66487;SDS011;53304;54.550;18.526;2023-06-14T10:23:17;8.48;;;3.00;;
66487;SDS011;53304;54.550;18.526;2023-06-14T10:25:45;9.88;;;3.33;;
66487;SDS011;53304;54.550;18.526;2023-06-14T10:28:14;8.98;;;2.92;;
66487;SDS011;53304;54.550;18.526;2023-06-14T10:34:20;16.17;;;3.88;;
66487;SDS011;53304;54.550;18.526;2023-06-14T10:41:39;15.55;;;3.17;;
66487;SDS011;53304;54.550;18.526;2023-06-14T10:46:48;9.45;;;3.08;;
66487;SDS011;53304;54.550;18.526;2023-06-14T10:49:20;11.00;;;3.00;;
66487;SDS011;53304;54.550;18.526;2023-06-14T10:52:16;4.75;;;2.80;;
66487;SDS011;53304;54.550;18.526;2023-06-14T11:00:03;5.88;;;2.47;;
66487;SDS011;53304;54.550;18.526;2023-06-14T11:05:26;8.93;;;3.03;;
66487;SDS011;53304;54.550;18.526;2023-06-14T11:10:41;16.10;;;3.88;;
66487;SDS011;53304;54.550;18.526;2023-06-14T11:13:07;12.13;;;4.13;;
66487;SDS011;53304;54.550;18.526;2023-06-14T11:15:33;9.35;;;3.28;;
66487;SDS011;53304;54.550;18.526;2023-06-14T11:18:00;16.25;;;3.78;;
66487;SDS011;53304;54.550;18.526;2023-06-14T11:20:29;11.07;;;3.38;;
66487;SDS011;53304;54.550;18.526;2023-06-14T11:22:58;8.68;;;3.33;;
66487;SDS011;53304;54.550;18.526;2023-06-14T11:25:24;7.47;;;3.35;;
66487;SDS011;53304;54.550;18.526;2023-06-14T11:27:51;11.25;;;3.70;;
66487;SDS011;53304;54.550;18.526;2023-06-14T11:30:19;6.32;;;3.25;;
66487;SDS011;53304;54.550;18.526;2023-06-14T11:32:51;6.53;;;2.70;;
66487;SDS011;53304;54.550;18.526;2023-06-14T11:35:21;5.90;;;2.97;;
66487;SDS011;53304;54.550;18.526;2023-06-14T11:37:48;5.15;;;3.05;;
66487;SDS011;53304;54.550;18.526;2023-06-14T11:40:17;5.63;;;3.00;;
66487;SDS011;53304;54.550;18.526;2023-06-14T11:42:42;9.25;;;3.20;;
66487;SDS011;53304;54.550;18.526;2023-06-14T11:45:10;8.07;;;3.10;;
66487;SDS011;53304;54.550;18.526;2023-06-14T11:47:39;7.05;;;2.90;;
66487;SDS011;53304;54.550;18.526;2023-06-14T11:50:08;5.97;;;3.35;;
66487;SDS011;53304;54.550;18.526;2023-06-14T11:52:38;9.73;;;3.35;;
66487;SDS011;53304;54.550;18.526;2023-06-14T11:55:03;8.20;;;2.97;;
66487;SDS011;53304;54.550;18.526;2023-06-14T11:57:35;5.93;;;2.92;;
66487;SDS011;53304;54.550;18.526;2023-06-14T12:00:04;9.07;;;3.20;;
66487;SDS011;53304;54.550;18.526;2023-06-14T12:02:37;5.47;;;3.03;;
66487;SDS011;53304;54.550;18.526;2023-06-14T12:05:05;7.80;;;3.03;;
66487;SDS011;53304;54.550;18.526;2023-06-14T12:07:36;5.90;;;2.90;;
66487;SDS011;53304;54.550;18.526;2023-06-14T12:12:28;6.25;;;2.85;;
66487;SDS011;53304;54.550;18.526;2023-06-14T12:14:56;5.32;;;2.70;;
66487;SDS011;53304;54.550;18.526;2023-06-14T12:17:21;5.88;;;2.83;;
66487;SDS011;53304;54.550;18.526;2023-06-14T12:19:48;6.88;;;2.90;;
66487;SDS011;53304;54.550;18.526;2023-06-14T12:22:16;5.88;;;2.70;;
66487;SDS011;53304;54.550;18.526;2023-06-14T12:24:48;5.13;;;2.80;;
66487;SDS011;53304;54.550;18.526;2023-06-14T12:27:15;6.25;;;2.50;;
66487;SDS011;53304;54.550;18.526;2023-06-14T12:29:45;6.03;;;2.72;;
66487;SDS011;53304;54.550;18.526;2023-06-14T12:32:11;4.95;;;2.80;;
66487;SDS011;53304;54.550;18.526;2023-06-14T12:34:36;5.45;;;3.08;;
66487;SDS011;53304;54.550;18.526;2023-06-14T12:37:02;4.85;;;2.58;;
66487;SDS011;53304;54.550;18.526;2023-06-14T12:39:29;5.55;;;2.85;;
66487;SDS011;53304;54.550;18.526;2023-06-14T12:41:56;7.57;;;2.83;;
66487;SDS011;53304;54.550;18.526;2023-06-14T12:44:22;5.60;;;2.90;;
66487;SDS011;53304;54.550;18.526;2023-06-14T12:46:48;7.20;;;3.10;;
66487;SDS011;53304;54.550;18.526;2023-06-14T12:49:18;5.97;;;2.80;;
66487;SDS011;53304;54.550;18.526;2023-06-14T12:51:46;8.20;;;2.90;;
66487;SDS011;53304;54.550;18.526;2023-06-14T12:54:11;6.68;;;3.13;;
66487;SDS011;53304;54.550;18.526;2023-06-14T12:56:37;6.55;;;2.90;;
66487;SDS011;53304;54.550;18.526;2023-06-14T12:59:03;6.07;;;2.65;;
66487;SDS011;53304;54.550;18.526;2023-06-14T13:01:28;7.30;;;2.92;;
66487;SDS011;53304;54.550;18.526;2023-06-14T13:03:56;7.30;;;3.20;;
66487;SDS011;53304;54.550;18.526;2023-06-14T13:06:21;9.07;;;3.05;;
66487;SDS011;53304;54.550;18.526;2023-06-14T13:08:47;6.63;;;2.97;;
66487;SDS011;53304;54.550;18.526;2023-06-14T13:11:13;5.30;;;2.38;;
66487;SDS011;53304;54.550;18.526;2023-06-14T13:13:39;7.88;;;3.00;;
66487;SDS011;53304;54.550;18.526;2023-06-14T13:16:04;5.00;;;2.88;;
66487;SDS011;53304;54.550;18.526;2023-06-14T13:18:33;6.65;;;2.67;;
66487;SDS011;53304;54.550;18.526;2023-06-14T13:20:58;6.38;;;2.80;;
66487;SDS011;53304;54.550;18.526;2023-06-14T13:23:24;4.55;;;2.58;;
66487;SDS011;53304;54.550;18.526;2023-06-14T13:25:54;7.75;;;2.97;;
66487;SDS011;53304;54.550;18.526;2023-06-14T13:28:20;5.78;;;2.80;;
66487;SDS011;53304;54.550;18.526;2023-06-14T13:30:47;5.78;;;2.80;;
66487;SDS011;53304;54.550;18.526;2023-06-14T13:33:15;7.80;;;2.78;;
66487;SDS011;53304;54.550;18.526;2023-06-14T13:35:43;5.82;;;2.70;;
66487;SDS011;53304;54.550;18.526;2023-06-14T13:38:09;6.57;;;2.67;;
66487;SDS011;53304;54.550;18.526;2023-06-14T13:40:35;6.10;;;2.55;;
66487;SDS011;53304;54.550;18.526;2023-06-14T13:43:05;5.88;;;2.80;;
66487;SDS011;53304;54.550;18.526;2023-06-14T13:45:36;6.53;;;2.60;;
66487;SDS011;53304;54.550;18.526;2023-06-14T13:48:01;6.82;;;2.47;;
66487;SDS011;53304;54.550;18.526;2023-06-14T13:50:29;5.78;;;2.75;;
66487;SDS011;53304;54.550;18.526;2023-06-14T13:52:55;5.55;;;2.65;;
66487;SDS011;53304;54.550;18.526;2023-06-14T13:55:23;6.10;;;2.65;;
66487;SDS011;53304;54.550;18.526;2023-06-14T13:57:48;5.32;;;2.78;;
66487;SDS011;53304;54.550;18.526;2023-06-14T14:00:14;5.72;;;2.58;;
66487;SDS011;53304;54.550;18.526;2023-06-14T14:02:42;6.15;;;2.83;;
66487;SDS011;53304;54.550;18.526;2023-06-14T14:05:08;5.10;;;2.30;;
66487;SDS011;53304;54.550;18.526;2023-06-14T14:07:39;7.18;;;2.58;;
66487;SDS011;53304;54.550;18.526;2023-06-14T14:10:04;5.60;;;2.30;;
66487;SDS011;53304;54.550;18.526;2023-06-14T14:12:30;5.47;;;2.30;;
66487;SDS011;53304;54.550;18.526;2023-06-14T14:14:56;6.32;;;2.70;;
66487;SDS011;53304;54.550;18.526;2023-06-14T14:17:24;7.53;;;2.92;;
66487;SDS011;53304;54.550;18.526;2023-06-14T14:19:52;7.45;;;2.65;;
66487;SDS011;53304;54.550;18.526;2023-06-14T14:22:19;6.07;;;2.40;;
66487;SDS011;53304;54.550;18.526;2023-06-14T14:24:45;6.13;;;2.90;;
66487;SDS011;53304;54.550;18.526;2023-06-14T14:27:13;5.72;;;3.03;;
66487;SDS011;53304;54.550;18.526;2023-06-14T14:29:38;4.18;;;2.38;;
66487;SDS011;53304;54.550;18.526;2023-06-14T14:32:04;8.23;;;2.55;;
66487;SDS011;53304;54.550;18.526;2023-06-14T14:34:29;8.57;;;2.90;;
66487;SDS011;53304;54.550;18.526;2023-06-14T14:36:57;7.53;;;2.67;;
66487;SDS011;53304;54.550;18.526;2023-06-14T14:39:25;6.03;;;2.50;;
66487;SDS011;53304;54.550;18.526;2023-06-14T14:41:50;4.80;;;2.53;;
66487;SDS011;53304;54.550;18.526;2023-06-14T14:44:16;6.45;;;2.38;;
66487;SDS011;53304;54.550;18.526;2023-06-14T14:46:42;7.28;;;2.45;;
66487;SDS011;53304;54.550;18.526;2023-06-14T14:49:08;5.40;;;2.70;;
66487;SDS011;53304;54.550;18.526;2023-06-14T14:51:36;6.38;;;2.58;;
66487;SDS011;53304;54.550;18.526;2023-06-14T14:54:03;5.20;;;2.58;;
66487;SDS011;53304;54.550;18.526;2023-06-14T14:56:31;6.75;;;2.90;;
66487;SDS011;53304;54.550;18.526;2023-06-14T14:59:00;6.68;;;2.90;;
66487;SDS011;53304;54.550;18.526;2023-06-14T15:01:26;8.35;;;2.60;;
66487;SDS011;53304;54.550;18.526;2023-06-14T15:03:51;7.03;;;2.83;;
66487;SDS011;53304;54.550;18.526;2023-06-14T15:06:19;6.63;;;2.53;;
66487;SDS011;53304;54.550;18.526;2023-06-14T15:08:46;4.70;;;2.38;;
66487;SDS011;53304;54.550;18.526;2023-06-14T15:11:15;6.00;;;2.63;;
66487;SDS011;53304;54.550;18.526;2023-06-14T15:13:43;5.88;;;2.60;;
66487;SDS011;53304;54.550;18.526;2023-06-14T15:16:08;6.05;;;2.72;;
66487;SDS011;53304;54.550;18.526;2023-06-14T15:18:39;6.25;;;2.67;;
66487;SDS011;53304;54.550;18.526;2023-06-14T15:21:04;6.68;;;2.70;;